Terminal Aerodrome Forecast
Issued by NWS

Home | Current Version | Previous Version | Text Only | Print | Product List | Glossary On
Versions: 1 2 3 4 5 6 7 8 9 10 11 12 13 14 15 16 17 18 19 20 21 22 23 24
000
FTUS41 KGYX 251913 AAA
TAFLEB
TAF AMD
KLEB 251913Z 2519/2618 23010G16KT P6SM VCTS SCT080 BKN100CB
     FM252100 25006KT P6SM BKN250
     FM260300 25004KT P6SM SCT090
     FM261600 26006KT P6SM BKN250 PROB30 2617/2618 4SM -SHRA OVC040=

USA.gov is the U.S. government's official web portal to all federal, state and local government web resources and services.